Time;durP1;ratioP1;P1;durP2;ratioP2;P2;SDS_P1;SDS_P2;PMS_P1;PMS_P2;Temp;Humidity;BMP_temperature;BMP_pressure;BME280_temperature;BME280_humidity;BME280_pressure;Samples;Min_cycle;Max_cycle;Signal;HPM_P1;HPM_P2
2023/06/18 00:03:25;;;;;;;13.98;8.82;;;;;;;20.12;100.00;99105.13;10413996;28;20146;-67
2023/06/18 00:08:26;;;;;;;11.68;8.07;;;;;;;20.57;100.00;99177.41;10414754;28;20068;-67
2023/06/18 00:13:27;;;;;;;18.02;9.02;;;;;;;19.99;100.00;99112.59;10414665;28;20033;-69
2023/06/18 00:18:28;;;;;;;17.23;8.88;;;;;;;20.35;100.00;99190.22;10414932;28;20045;-67
2023/06/18 00:23:29;;;;;;;14.82;7.63;;;;;;;20.25;100.00;99197.19;10413868;28;20061;-67
2023/06/18 00:28:29;;;;;;;16.55;8.55;;;;;;;20.14;100.00;99189.28;10412947;28;20045;-67
2023/06/18 00:33:32;;;;;;;16.92;9.00;;;;;;;20.03;100.00;99189.19;10413130;28;20065;-67
2023/06/18 00:38:35;;;;;;;17.90;9.00;;;;;;;19.84;100.00;99167.22;10413622;28;20135;-68
2023/06/18 00:43:36;;;;;;;12.02;8.30;;;;;;;19.95;100.00;99202.31;10412194;28;20049;-68
2023/06/18 00:48:37;;;;;;;10.60;8.80;;;;;;;19.88;100.00;99172.91;10412912;28;20084;-67
2023/06/18 00:53:37;;;;;;;15.05;8.15;;;;;;;19.80;100.00;99178.75;10413310;28;20088;-67
2023/06/18 00:58:39;;;;;;;21.45;8.77;;;;;;;19.84;100.00;99206.84;10413512;28;20481;-67
2023/06/18 01:03:41;;;;;;;11.90;8.45;;;;;;;19.27;100.00;99134.63;10414723;28;20072;-67
2023/06/18 01:08:43;;;;;;;11.68;8.20;;;;;;;19.57;100.00;99204.13;10428599;28;20106;-67
2023/06/18 01:13:44;;;;;;;18.35;8.38;;;;;;;19.45;100.00;99188.13;10449447;28;20045;-67
2023/06/18 01:18:50;;;;;;;26.27;8.32;;;;;;;19.54;100.00;99218.91;10453551;28;20052;-68
2023/06/18 01:24:20;;;;;;;28.50;8.52;;;;;;;19.57;100.00;99220.28;10453927;28;20040;-68
2023/06/18 01:29:21;;;;;;;15.85;8.85;;;;;;;19.06;100.00;99157.84;10451739;28;20468;-68
2023/06/18 01:34:24;;;;;;;16.38;8.95;;;;;;;19.43;100.00;99205.59;10465699;28;20120;-68
2023/06/18 01:39:35;;;;;;;13.93;8.73;;;;;;;19.53;100.00;99225.38;10476344;28;20060;-67
2023/06/18 01:44:38;;;;;;;13.95;8.20;;;;;;;19.45;100.00;99206.16;10494305;28;20044;-67
2023/06/18 01:49:42;;;;;;;20.33;8.60;;;;;;;19.11;100.00;99147.09;10495015;28;20040;-67
2023/06/18 01:54:46;;;;;;;15.23;7.68;;;;;;;19.62;100.00;99225.72;10494232;28;20399;-68
2023/06/18 01:59:50;;;;;;;16.58;8.23;;;;;;;19.67;100.00;99220.41;10499610;28;20496;-68
2023/06/18 02:04:51;;;;;;;;;;;;;;;19.92;100.00;99225.22;10500774;28;20045;-67
2023/06/18 02:09:51;;;;;;;11.38;8.38;;;;;;;19.83;100.00;99227.59;10501081;28;19916;-67
2023/06/18 02:14:52;;;;;;;11.75;8.23;;;;;;;19.82;100.00;99192.78;10502188;28;20094;-68
2023/06/18 02:19:53;;;;;;;18.02;7.40;;;;;;;19.86;100.00;99158.06;10463910;28;20059;-67
2023/06/18 02:24:54;;;;;;;22.83;7.90;;;;;;;20.45;100.00;99180.28;10419081;28;20561;-67
2023/06/18 02:29:55;;;;;;;14.45;6.93;;;;;;;21.12;100.00;99181.44;10418377;28;20132;-67
2023/06/18 02:34:56;;;;;;;14.93;6.72;;;;;;;21.95;100.00;99229.16;10417103;28;20531;-67
2023/06/18 02:39:57;;;;;;;12.68;5.97;;;;;;;22.89;100.00;99258.56;10418509;28;20111;-68
2023/06/18 02:44:58;;;;;;;16.17;5.80;;;;;;;23.59;100.00;99234.94;10418163;28;20516;-68
2023/06/18 02:49:58;;;;;;;8.50;5.07;;;;;;;24.53;96.76;99225.81;10416868;28;20471;-68
2023/06/18 02:54:59;;;;;;;12.13;5.35;;;;;;;25.61;92.19;99260.69;10417554;28;20073;-68
2023/06/18 03:00:04;;;;;;;6.43;4.97;;;;;;;26.25;86.31;99275.50;10417767;28;20052;-68
2023/06/18 03:05:05;;;;;;;7.97;4.43;;;;;;;26.33;82.62;99225.03;10449804;28;20044;-68
2023/06/18 03:10:07;;;;;;;11.00;5.90;;;;;;;26.21;82.18;99257.34;10457366;28;20056;-68
2023/06/18 03:15:09;;;;;;;7.80;5.93;;;;;;;25.68;83.97;99239.38;10477248;28;20522;-68
2023/06/18 03:20:10;;;;;;;9.82;6.38;;;;;;;26.06;82.56;99258.41;10498906;28;20052;-68
2023/06/18 03:25:11;;;;;;;10.70;6.45;;;;;;;26.24;82.16;99257.56;10498862;28;20036;-68
2023/06/18 03:30:12;;;;;;;12.20;7.32;;;;;;;26.96;79.63;99257.09;10476725;28;20400;-68
2023/06/18 03:35:13;;;;;;;10.82;6.85;;;;;;;28.22;74.31;99262.78;10441816;28;20045;-68
2023/06/18 03:40:14;;;;;;;11.90;7.55;;;;;;;28.89;70.06;99255.56;10416856;28;20049;-68
2023/06/18 03:45:15;;;;;;;7.65;6.15;;;;;;;29.17;67.03;99185.09;10448222;28;20036;-68
2023/06/18 03:50:16;;;;;;;15.07;5.95;;;;;;;30.01;65.04;99260.47;10455938;28;20045;-69
2023/06/18 03:55:16;;;;;;;9.00;5.88;;;;;;;30.43;63.28;99249.78;10455198;28;20045;-69
2023/06/18 04:00:17;;;;;;;10.88;5.90;;;;;;;30.62;61.63;99267.75;10455359;28;20099;-68
2023/06/18 04:05:18;;;;;;;8.13;5.50;;;;;;;31.37;60.16;99281.81;10471909;28;20051;-68
2023/06/18 04:10:19;;;;;;;7.07;5.30;;;;;;;31.48;58.75;99269.31;10480836;28;20043;-69
2023/06/18 04:15:20;;;;;;;10.90;6.45;;;;;;;31.65;57.68;99251.09;10464707;28;20037;-69
2023/06/18 04:20:21;;;;;;;7.13;5.03;;;;;;;31.51;57.78;99197.28;10494875;28;20044;-68
2023/06/18 04:25:22;;;;;;;9.32;5.90;;;;;;;32.19;57.52;99271.19;10495955;28;20416;-68
2023/06/18 04:30:23;;;;;;;7.00;5.30;;;;;;;31.60;56.29;99209.00;10496045;28;20055;-69
2023/06/18 04:35:24;;;;;;;7.25;4.07;;;;;;;31.38;54.73;99188.19;10496914;28;20131;-68
2023/06/18 04:40:25;;;;;;;9.73;4.18;;;;;;;31.75;54.26;99267.19;10496076;28;20068;-68
2023/06/18 04:45:27;;;;;;;6.05;4.07;;;;;;;31.79;54.81;99273.59;10490896;28;20059;-70
2023/06/18 04:50:28;;;;;;;8.20;4.38;;;;;;;31.37;54.33;99257.13;10495159;28;20051;-68
2023/06/18 04:55:28;;;;;;;9.70;4.15;;;;;;;31.20;55.04;99268.16;10496699;28;20101;-68
2023/06/18 05:00:29;;;;;;;6.35;3.90;;;;;;;30.57;55.45;99276.16;10496266;28;20047;-68
2023/06/18 05:05:30;;;;;;;9.15;4.43;;;;;;;30.10;56.24;99215.84;10495743;28;20492;-68
2023/06/18 05:10:33;;;;;;;6.80;4.40;;;;;;;29.49;57.32;99153.69;10494947;28;20079;-68
2023/06/18 05:15:34;;;;;;;13.23;4.30;;;;;;;29.61;57.43;99240.63;10495714;28;20042;-68
2023/06/18 05:20:35;;;;;;;5.45;4.25;;;;;;;28.51;58.75;99137.78;10494179;28;20032;-68
2023/06/18 05:25:37;;;;;;;6.15;4.32;;;;;;;28.77;59.03;99258.09;10494109;28;20047;-68
2023/06/18 05:30:38;;;;;;;7.60;4.68;;;;;;;28.58;59.61;99255.63;10469899;28;20048;-68
2023/06/18 05:35:39;;;;;;;7.20;4.38;;;;;;;28.68;59.51;99279.94;10482535;28;20060;-68
2023/06/18 05:40:40;;;;;;;8.20;4.38;;;;;;;28.72;58.82;99272.72;10460537;28;20041;-67
2023/06/18 05:45:40;;;;;;;6.53;4.30;;;;;;;28.40;57.54;99241.84;10478231;28;20041;-68
2023/06/18 05:50:42;;;;;;;7.05;4.70;;;;;;;28.23;57.79;99206.22;10486426;28;20072;-68
2023/06/18 05:55:43;;;;;;;5.85;3.80;;;;;;;28.59;58.32;99274.41;10484770;28;20138;-71
2023/06/18 06:00:44;;;;;;;8.07;4.30;;;;;;;28.76;59.78;99265.50;10501170;28;20620;-69
2023/06/18 06:05:44;;;;;;;7.13;4.28;;;;;;;28.61;58.37;99242.13;10501444;28;20169;-69
2023/06/18 06:10:45;;;;;;;29.50;4.70;;;;;;;28.31;59.25;99180.91;10428500;28;20072;-68
2023/06/18 06:15:46;;;;;;;7.57;4.03;;;;;;;28.81;58.90;99253.63;10412769;28;20045;-71
2023/06/18 06:20:47;;;;;;;7.47;4.10;;;;;;;28.56;58.79;99189.53;10412138;28;20511;-72
2023/06/18 06:25:47;;;;;;;5.50;3.80;;;;;;;28.67;58.85;99178.00;10410328;28;20056;-70
2023/06/18 06:30:48;;;;;;;5.18;3.97;;;;;;;28.84;57.81;99198.34;10431027;28;20052;-70
2023/06/18 06:35:49;;;;;;;5.72;3.47;;;;;;;28.98;57.52;99248.22;10448698;28;20057;-72
2023/06/18 06:40:50;;;;;;;6.90;4.07;;;;;;;29.11;56.72;99258.25;10410788;28;20033;-70
2023/06/18 06:45:51;;;;;;;5.95;3.78;;;;;;;29.27;55.77;99261.34;10410837;28;20046;-73
2023/06/18 06:50:53;;;;;;;8.15;3.70;;;;;;;29.34;55.81;99271.81;10448605;28;20143;-71
2023/06/18 06:55:53;;;;;;;20.73;6.70;;;;;;;29.54;56.04;99276.69;10446512;28;20041;-74
2023/06/18 07:00:54;;;;;;;6.10;3.63;;;;;;;29.42;53.92;99265.56;10432843;28;20502;-71
2023/06/18 07:05:55;;;;;;;5.70;3.33;;;;;;;28.87;54.17;99203.16;10415551;28;20072;-70
2023/06/18 07:10:56;;;;;;;4.78;3.10;;;;;;;29.25;54.02;99269.06;10412440;28;20081;-78
2023/06/18 07:15:57;;;;;;;6.72;3.60;;;;;;;29.45;54.65;99275.06;10428271;28;20128;-71
2023/06/18 07:20:58;;;;;;;6.40;3.45;;;;;;;29.59;54.31;99264.78;10469026;28;20045;-70
2023/06/18 07:25:59;;;;;;;5.82;3.50;;;;;;;29.69;53.78;99271.91;10499091;28;20041;-70
2023/06/18 07:31:00;;;;;;;6.47;3.38;;;;;;;29.74;52.65;99264.34;10474617;28;20080;-70
2023/06/18 07:36:00;;;;;;;8.70;3.67;;;;;;;30.07;52.61;99269.31;10455839;28;20192;-70
2023/06/18 07:41:01;;;;;;;4.47;3.25;;;;;;;30.14;51.85;99264.13;10440264;28;20041;-70
2023/06/18 07:46:02;;;;;;;7.60;3.70;;;;;;;30.39;51.16;99265.25;10433408;28;20069;-71
2023/06/18 07:51:03;;;;;;;5.40;3.03;;;;;;;30.45;51.17;99266.69;10443907;28;20412;-71
2023/06/18 07:56:04;;;;;;;7.20;3.65;;;;;;;29.75;49.75;99139.22;10448717;28;20106;-70
2023/06/18 08:01:05;;;;;;;5.78;3.10;;;;;;;30.49;49.73;99269.59;10433740;28;20041;-71
2023/06/18 08:06:06;;;;;;;5.05;3.40;;;;;;;30.50;50.53;99232.03;10452200;28;20043;-69
2023/06/18 08:11:07;;;;;;;7.15;3.45;;;;;;;30.82;49.54;99252.56;10462089;28;20036;-68
2023/06/18 08:16:07;;;;;;;3.65;2.95;;;;;;;30.87;49.16;99255.94;10482856;28;20131;-70
2023/06/18 08:21:09;;;;;;;6.30;2.88;;;;;;;31.12;47.98;99258.88;10475973;28;20430;-70
2023/06/18 08:26:09;;;;;;;5.22;3.08;;;;;;;30.71;47.47;99181.63;10455303;28;20056;-71
2023/06/18 08:31:10;;;;;;;9.40;2.92;;;;;;;31.26;47.26;99264.94;10480469;28;20047;-70
2023/06/18 08:36:11;;;;;;;7.03;2.95;;;;;;;31.23;47.43;99257.34;10495422;28;20056;-69
2023/06/18 08:41:12;;;;;;;8.32;5.28;;;;;;;30.43;46.60;99142.13;10495525;28;20499;-71
2023/06/18 08:46:14;;;;;;;17.33;7.50;;;;;;;31.33;46.42;99245.97;10481781;28;20048;-71
2023/06/18 08:51:17;;;;;;;11.07;4.40;;;;;;;31.24;45.85;99226.03;10442408;28;20048;-70
2023/06/18 08:56:21;;;;;;;10.68;5.15;;;;;;;31.27;46.47;99211.66;10446083;28;20049;-71
2023/06/18 09:01:23;;;;;;;5.13;2.95;;;;;;;31.42;45.34;99223.22;10438917;28;20509;-72
2023/06/18 09:06:24;;;;;;;14.77;6.10;;;;;;;31.61;46.13;99229.00;10444755;28;20056;-70
2023/06/18 09:11:26;;;;;;;6.95;4.15;;;;;;;31.47;44.73;99184.56;10439985;28;20052;-72
2023/06/18 09:16:27;;;;;;;3.97;2.75;;;;;;;30.89;44.70;99165.91;10426552;28;20536;-68
2023/06/18 09:21:38;;;;;;;3.42;2.42;;;;;;;30.96;44.60;99181.03;10465554;28;20049;-71
2023/06/18 09:26:39;;;;;;;6.15;3.22;;;;;;;31.41;44.64;99207.84;10458128;28;20037;-72
2023/06/18 09:31:44;;;;;;;3.28;2.38;;;;;;;31.55;44.04;99211.94;10457548;28;20041;-68
2023/06/18 09:36:47;;;;;;;3.25;2.33;;;;;;;31.83;41.72;99203.16;10441712;28;20052;-71
2023/06/18 09:41:51;;;;;;;7.90;3.72;;;;;;;31.86;42.86;99165.97;10430526;28;20098;-74
2023/06/18 09:46:56;;;;;;;6.70;2.53;;;;;;;32.33;40.68;99215.09;10443047;28;20041;-69
2023/06/18 09:51:57;;;;;;;3.70;2.65;;;;;;;32.17;42.28;99190.22;10450735;28;20085;-70
2023/06/18 09:57:16;;;;;;;8.27;2.60;;;;;;;31.96;42.29;99217.75;10446656;28;20408;-69
2023/06/18 10:02:24;;;;;;;21.45;12.13;;;;;;;31.63;43.85;99207.53;10424826;28;20560;-70
2023/06/18 10:07:25;;;;;;;13.95;5.78;;;;;;;31.81;44.63;99181.50;10428522;28;20049;-70
2023/06/18 10:12:26;;;;;;;5.45;2.90;;;;;;;32.34;43.47;99197.47;10419079;28;20041;-70
2023/06/18 10:43:54;;;;;;;5.70;2.92;;;;;;;31.91;42.92;99182.25;11508602;23;20062;-69
2023/06/18 10:49:16;;;;;;;5.57;2.47;;;;;;;31.45;42.07;99165.69;10334660;28;20044;-69
2023/06/18 10:54:29;;;;;;;8.82;2.45;;;;;;;31.62;43.10;99126.31;10336828;28;20042;-70
2023/06/18 10:59:35;;;;;;;3.47;2.03;;;;;;;32.03;41.32;99165.81;10328434;28;20038;-69
2023/06/18 11:04:36;;;;;;;9.82;2.50;;;;;;;31.71;41.96;99085.84;10334931;28;20149;-69
2023/06/18 11:09:58;;;;;;;7.72;1.88;;;;;;;32.42;40.41;99158.88;10335392;28;20046;-69
2023/06/18 11:15:17;;;;;;;6.07;2.40;;;;;;;32.52;40.38;99149.44;10334354;28;20535;-68
2023/06/18 11:20:20;;;;;;;4.38;1.80;;;;;;;32.50;40.11;99144.25;10335093;28;20045;-68
2023/06/18 11:25:22;;;;;;;3.72;2.17;;;;;;;32.56;39.57;99141.28;10335009;28;20038;-68
2023/06/18 11:30:23;;;;;;;11.95;2.33;;;;;;;32.86;39.93;99144.59;10334101;28;20046;-69
2023/06/18 11:35:24;;;;;;;10.55;2.10;;;;;;;32.80;38.97;99123.97;10334286;28;20045;-69
2023/06/18 11:40:25;;;;;;;15.80;2.40;;;;;;;32.68;39.43;99125.59;10334777;28;20080;-68
2023/06/18 11:45:26;;;;;;;4.93;1.98;;;;;;;32.13;40.00;99117.88;10302724;28;20078;-67
2023/06/18 11:50:27;;;;;;;4.00;2.10;;;;;;;32.14;39.41;99114.00;10293347;28;20101;-71
2023/06/18 11:55:28;;;;;;;6.72;2.30;;;;;;;32.47;39.26;99111.16;10293777;28;20395;-69
2023/06/18 12:00:30;;;;;;;3.38;1.88;;;;;;;32.81;38.87;99123.59;10292109;28;20413;-70
2023/06/18 12:05:38;;;;;;;7.73;2.70;;;;;;;32.81;39.72;99147.56;10293874;28;20047;-69
2023/06/18 12:10:41;;;;;;;9.65;3.17;;;;;;;31.93;41.35;99161.56;10293260;28;20039;-70
2023/06/18 12:16:08;;;;;;;9.25;2.95;;;;;;;31.80;41.90;99155.22;10292783;28;20122;-71
2023/06/18 12:21:09;;;;;;;8.65;2.45;;;;;;;31.62;41.68;99142.78;10292468;28;20035;-69
2023/06/18 12:26:10;;;;;;;14.15;3.67;;;;;;;31.64;42.12;99143.25;10292157;28;20071;-70
2023/06/18 12:31:11;;;;;;;13.38;3.10;;;;;;;31.21;41.47;99097.75;10292273;28;20043;-68
2023/06/18 12:36:12;;;;;;;7.35;2.90;;;;;;;31.51;41.96;99156.13;10292588;28;20050;-69
2023/06/18 12:41:25;;;;;;;14.45;2.83;;;;;;;31.52;41.56;99134.97;10291755;28;20413;-69
2023/06/18 12:46:27;;;;;;;10.30;2.75;;;;;;;31.54;40.39;99179.34;10292584;28;20066;-70
2023/06/18 12:51:42;;;;;;;6.87;2.60;;;;;;;31.59;40.03;99155.25;10289391;28;20047;-71
2023/06/18 12:56:48;;;;;;;7.75;2.70;;;;;;;31.65;40.46;99169.56;10288200;28;20422;-71
2023/06/18 13:01:49;;;;;;;11.85;2.78;;;;;;;31.60;40.70;99150.56;10289106;28;20059;-69
2023/06/18 13:06:50;;;;;;;8.73;2.50;;;;;;;31.82;39.44;99174.88;10286981;28;20042;-71
2023/06/18 13:11:51;;;;;;;12.32;2.58;;;;;;;31.86;39.40;99185.19;10269642;28;20057;-72
2023/06/18 13:16:52;;;;;;;7.15;2.55;;;;;;;31.53;38.91;99181.31;10281802;28;20042;-70
2023/06/18 13:21:53;;;;;;;9.13;2.85;;;;;;;31.72;39.20;99175.31;10282793;28;20053;-69
2023/06/18 13:26:54;;;;;;;8.77;2.90;;;;;;;31.56;38.23;99168.81;10281690;28;20047;-73
2023/06/18 13:31:55;;;;;;;6.55;2.88;;;;;;;31.58;38.94;99181.06;10282783;28;20498;-68
2023/06/18 13:36:55;;;;;;;9.55;2.45;;;;;;;31.29;38.94;99115.28;10286890;28;20050;-67
2023/06/18 13:41:56;;;;;;;11.13;2.70;;;;;;;31.72;39.35;99175.31;10283433;28;20047;-68
2023/06/18 13:46:57;;;;;;;7.28;2.80;;;;;;;31.27;39.55;99104.66;10288437;28;20073;-68
2023/06/18 13:51:58;;;;;;;8.88;3.10;;;;;;;31.46;39.27;99163.75;10291075;28;20042;-68
2023/06/18 13:56:59;;;;;;;15.90;3.97;;;;;;;31.33;40.28;99182.88;10294563;28;20062;-68
2023/06/18 14:02:00;;;;;;;9.50;2.90;;;;;;;31.20;39.97;99180.38;10297772;28;20541;-68
2023/06/18 14:07:02;;;;;;;8.50;3.17;;;;;;;30.54;40.84;99178.16;10296974;28;20049;-68
2023/06/18 14:12:04;;;;;;;10.07;3.23;;;;;;;29.82;42.09;99123.09;10296666;28;20050;-68
2023/06/18 14:17:09;;;;;;;7.30;2.95;;;;;;;29.98;42.80;99191.84;10297226;28;20042;-69
2023/06/18 14:22:10;;;;;;;11.00;3.58;;;;;;;29.00;42.65;99075.66;10294793;28;20058;-71
2023/06/18 14:27:11;;;;;;;18.05;4.80;;;;;;;29.31;43.43;99141.97;10294176;28;20418;-70
2023/06/18 14:32:12;;;;;;;15.30;4.03;;;;;;;29.75;43.48;99216.66;10277895;28;20082;-70
2023/06/18 14:37:13;;;;;;;8.75;3.20;;;;;;;30.09;42.97;99233.38;10279056;28;20066;-69
2023/06/18 14:42:14;;;;;;;12.93;3.72;;;;;;;30.17;42.47;99238.03;10263892;28;20059;-68
2023/06/18 14:47:15;;;;;;;11.98;3.40;;;;;;;30.29;42.50;99242.88;10274848;28;20513;-69
2023/06/18 14:52:15;;;;;;;21.80;3.85;;;;;;;30.22;43.09;99235.16;10282421;28;20387;-69
2023/06/18 14:57:17;;;;;;;11.13;3.65;;;;;;;30.11;42.41;99234.66;10280010;28;20506;-70
2023/06/18 15:02:18;;;;;;;10.23;3.43;;;;;;;29.89;42.75;99262.25;10283924;28;20391;-68
2023/06/18 15:07:19;;;;;;;13.07;4.15;;;;;;;29.21;43.76;99224.34;10274727;28;20046;-67
2023/06/18 15:12:21;;;;;;;11.35;4.22;;;;;;;29.38;44.45;99283.75;10275028;28;20109;-68
2023/06/18 15:17:22;;;;;;;15.55;3.92;;;;;;;29.20;44.94;99298.50;10293243;28;20042;-68
2023/06/18 15:22:25;;;;;;;13.50;4.65;;;;;;;28.94;45.86;99293.72;10293540;28;20064;-68
2023/06/18 15:27:26;;;;;;;21.10;6.53;;;;;;;28.89;46.50;99313.78;10293544;28;20049;-68
2023/06/18 15:32:27;;;;;;;11.00;5.28;;;;;;;28.72;46.32;99323.81;10294175;28;20053;-68
2023/06/18 15:37:28;;;;;;;9.93;4.15;;;;;;;28.47;46.61;99320.63;10294900;28;20046;-69
2023/06/18 15:42:30;;;;;;;13.18;5.72;;;;;;;28.49;47.40;99364.03;10289647;28;20439;-67
2023/06/18 15:47:31;;;;;;;20.35;7.55;;;;;;;28.34;48.02;99382.38;10292823;28;20054;-68
2023/06/18 15:52:33;;;;;;;27.02;5.88;;;;;;;28.10;49.12;99401.78;10294308;28;20049;-67
2023/06/18 15:57:33;;;;;;;21.23;5.53;;;;;;;27.45;50.51;99408.28;10293727;28;20038;-67
2023/06/18 16:02:34;;;;;;;14.50;5.68;;;;;;;26.89;51.41;99431.06;10266827;28;20039;-68
2023/06/18 16:07:35;;;;;;;13.23;5.10;;;;;;;26.14;52.15;99356.50;10264555;28;20039;-67
2023/06/18 16:12:36;;;;;;;13.65;4.35;;;;;;;26.10;53.50;99398.22;10285851;28;20050;-68
2023/06/18 16:17:37;;;;;;;14.02;4.95;;;;;;;25.87;54.88;99411.59;10290381;28;20070;-69
2023/06/18 16:22:38;;;;;;;15.13;4.90;;;;;;;25.32;58.74;99410.31;10292062;28;20070;-70
2023/06/18 16:27:39;;;;;;;13.85;5.10;;;;;;;24.29;63.74;99407.59;10287493;28;20105;-71
2023/06/18 16:32:40;;;;;;;14.20;5.75;;;;;;;23.91;66.63;99427.06;10285956;28;20054;-70
2023/06/18 16:37:40;;;;;;;11.10;4.97;;;;;;;23.87;66.99;99452.31;10277366;28;20043;-70
2023/06/18 16:42:41;;;;;;;10.13;4.88;;;;;;;23.43;67.37;99415.03;10273902;28;20503;-70
2023/06/18 16:47:42;;;;;;;14.40;5.28;;;;;;;23.75;67.53;99468.06;10279182;28;20086;-70
2023/06/18 16:52:43;;;;;;;16.60;5.85;;;;;;;23.34;67.78;99414.78;10280611;28;20035;-70
2023/06/18 16:57:43;;;;;;;15.55;5.18;;;;;;;23.73;67.81;99479.22;10278240;28;20815;-70
2023/06/18 17:02:44;;;;;;;18.20;5.50;;;;;;;23.75;67.38;99490.56;10286272;28;20411;-70
2023/06/18 17:07:45;;;;;;;13.50;5.20;;;;;;;23.60;67.29;99474.31;10290850;28;20085;-70
2023/06/18 17:12:46;;;;;;;7.28;4.63;;;;;;;23.72;66.80;99493.84;10291447;28;20093;-69
2023/06/18 17:17:47;;;;;;;10.20;4.47;;;;;;;23.75;66.61;99503.34;10289556;28;20173;-70
2023/06/18 17:22:47;;;;;;;15.63;4.93;;;;;;;23.68;66.82;99500.88;10290796;28;20042;-70
2023/06/18 17:27:49;;;;;;;7.63;4.45;;;;;;;23.05;67.08;99414.53;10282839;28;20051;-69
2023/06/18 17:32:50;;;;;;;8.80;4.32;;;;;;;23.42;67.11;99473.00;10260364;28;20047;-69
2023/06/18 17:37:51;;;;;;;8.98;4.80;;;;;;;23.27;67.58;99448.66;10259064;28;20046;-70
2023/06/18 17:42:55;;;;;;;11.65;4.95;;;;;;;23.52;68.82;99500.13;10258096;28;20507;-70
2023/06/18 17:47:56;;;;;;;20.00;4.90;;;;;;;23.90;67.77;99560.25;10277940;28;20110;-71
2023/06/18 17:52:57;;;;;;;16.70;4.90;;;;;;;23.80;67.71;99552.13;10281902;28;20158;-69
2023/06/18 17:57:58;;;;;;;16.60;4.70;;;;;;;24.04;67.34;99579.47;10284275;28;20078;-69
2023/06/18 18:02:58;;;;;;;18.05;5.40;;;;;;;24.04;68.30;99582.19;10283160;28;20034;-69
2023/06/18 18:07:59;;;;;;;25.05;5.32;;;;;;;23.40;68.97;99492.28;10279026;28;20593;-69
2023/06/18 18:13:00;;;;;;;12.35;4.60;;;;;;;24.17;68.27;99608.75;10280787;28;20043;-69
2023/06/18 18:18:01;;;;;;;10.45;4.45;;;;;;;23.39;68.11;99495.25;10280992;28;20051;-69
2023/06/18 18:23:01;;;;;;;9.25;4.32;;;;;;;24.26;67.70;99636.13;10283104;28;20506;-69
2023/06/18 18:28:02;;;;;;;12.55;4.07;;;;;;;24.25;67.87;99645.38;10287772;28;20441;-68
2023/06/18 18:33:03;;;;;;;8.95;3.75;;;;;;;23.72;69.02;99566.25;10284315;28;20065;-69
2023/06/18 18:38:04;;;;;;;7.18;3.85;;;;;;;24.00;70.53;99644.34;10279177;28;20561;-69
2023/06/18 18:43:05;;;;;;;10.23;3.75;;;;;;;23.92;71.61;99655.72;10285073;28;20109;-69
2023/06/18 18:48:05;;;;;;;8.02;4.05;;;;;;;23.78;72.50;99666.34;10295440;28;20039;-69
2023/06/18 18:53:06;;;;;;;8.30;3.30;;;;;;;23.61;73.40;99661.16;10296966;28;20039;-69
2023/06/18 18:58:07;;;;;;;6.75;3.20;;;;;;;23.40;73.71;99644.06;10293999;28;20137;-67
2023/06/18 19:03:08;;;;;;;7.55;3.17;;;;;;;23.27;74.25;99639.13;10295116;28;20102;-68
2023/06/18 19:08:09;;;;;;;7.15;3.38;;;;;;;23.20;74.49;99644.81;10294061;28;20473;-68
2023/06/18 19:13:11;;;;;;;5.75;3.38;;;;;;;23.23;75.18;99655.13;10295669;28;20045;-70
2023/06/18 19:18:12;;;;;;;4.82;3.03;;;;;;;22.75;75.07;99588.63;10295485;28;20043;-68
2023/06/18 19:23:13;;;;;;;9.50;3.28;;;;;;;23.07;74.99;99639.94;10295051;28;20453;-68
2023/06/18 19:28:13;;;;;;;5.50;2.75;;;;;;;22.54;75.11;99564.19;10274495;28;20057;-68
2023/06/18 19:33:16;;;;;;;4.57;2.53;;;;;;;23.12;75.46;99658.88;10280659;28;20046;-69
2023/06/18 19:38:17;;;;;;;5.90;2.70;;;;;;;23.05;75.23;99655.63;10294923;28;20030;-68
2023/06/18 19:43:18;;;;;;;5.15;2.90;;;;;;;22.51;75.40;99574.75;10270209;28;20081;-68
2023/06/18 19:48:21;;;;;;;5.18;3.10;;;;;;;23.00;75.39;99672.69;10262881;28;20057;-69
2023/06/18 19:53:22;;;;;;;7.78;2.85;;;;;;;22.78;75.87;99650.38;10253420;28;20130;-67
2023/06/18 19:58:23;;;;;;;5.95;2.67;;;;;;;22.87;76.64;99672.34;10269276;28;20106;-67
2023/06/18 20:03:24;;;;;;;8.13;2.72;;;;;;;22.64;76.67;99638.41;10292889;28;20039;-68
2023/06/18 20:08:24;;;;;;;4.25;2.67;;;;;;;22.81;76.79;99668.00;10292034;28;20047;-67
2023/06/18 20:13:25;;;;;;;6.13;2.80;;;;;;;22.81;76.60;99679.63;10291015;28;20041;-68
2023/06/18 20:18:26;;;;;;;4.57;2.47;;;;;;;22.74;76.32;99665.53;10292664;28;20054;-71
2023/06/18 20:23:27;;;;;;;7.43;2.35;;;;;;;22.60;76.93;99654.38;10280017;28;20038;-68
2023/06/18 20:28:28;;;;;;;6.00;2.28;;;;;;;22.53;76.22;99645.69;10251953;28;20054;-68
2023/06/18 20:33:29;;;;;;;4.65;2.20;;;;;;;22.57;76.18;99660.31;10250989;28;20049;-67
2023/06/18 20:38:29;;;;;;;5.50;2.30;;;;;;;22.04;76.67;99592.63;10253272;28;20566;-68
2023/06/18 20:43:30;;;;;;;7.40;2.20;;;;;;;22.40;77.10;99651.56;10290995;28;20106;-67
2023/06/18 20:48:31;;;;;;;5.30;2.10;;;;;;;22.36;77.23;99645.06;10290342;28;20054;-67
2023/06/18 20:53:32;;;;;;;4.97;2.30;;;;;;;22.30;77.26;99647.72;10293060;28;20043;-67
2023/06/18 20:58:33;;;;;;;6.18;2.40;;;;;;;21.84;77.47;99565.47;10291137;28;20450;-68
2023/06/18 21:03:39;;;;;;;5.85;2.25;;;;;;;22.26;78.13;99646.63;10291970;28;20051;-68
2023/06/18 21:08:40;;;;;;;5.65;2.67;;;;;;;22.13;78.79;99636.22;10290916;28;20046;-67
2023/06/18 21:13:43;;;;;;;5.55;2.40;;;;;;;22.03;78.81;99645.09;10291464;28;20047;-67
2023/06/18 21:18:43;;;;;;;4.57;2.20;;;;;;;21.49;79.04;99583.06;10291102;28;20038;-67
2023/06/18 21:23:44;;;;;;;6.70;2.78;;;;;;;21.88;80.04;99655.81;10289639;28;20046;-68
2023/06/18 21:28:46;;;;;;;4.05;2.17;;;;;;;21.74;80.50;99641.91;10271278;28;20046;-67
2023/06/18 21:33:47;;;;;;;5.85;2.70;;;;;;;21.79;81.38;99663.56;10264619;28;20047;-67
2023/06/18 21:38:47;;;;;;;13.45;2.85;;;;;;;21.59;82.53;99660.69;10250587;28;20035;-67
2023/06/18 21:43:48;;;;;;;9.68;2.85;;;;;;;21.55;83.32;99673.91;10250782;28;20496;-68
2023/06/18 21:48:49;;;;;;;5.85;2.70;;;;;;;21.41;83.85;99665.41;10251461;28;20106;-68
2023/06/18 21:53:50;;;;;;;5.53;2.28;;;;;;;21.30;84.18;99666.38;10250223;28;20047;-67
2023/06/18 21:58:50;;;;;;;5.65;2.65;;;;;;;21.30;85.09;99676.34;10250779;28;20406;-68
2023/06/18 22:03:54;;;;;;;4.78;2.50;;;;;;;21.12;85.78;99658.59;10250307;28;20039;-68
2023/06/18 22:08:55;;;;;;;6.47;3.05;;;;;;;20.93;85.62;99645.44;10276501;28;20514;-67
2023/06/18 22:13:56;;;;;;;6.15;2.58;;;;;;;21.02;86.27;99670.09;10292053;28;20046;-67
2023/06/18 22:19:08;;;;;;;9.45;2.80;;;;;;;20.87;86.64;99661.84;10297548;28;20043;-68
2023/06/18 22:24:10;;;;;;;8.70;2.83;;;;;;;20.78;87.43;99674.97;10295645;28;20035;-68
2023/06/18 22:29:11;;;;;;;4.88;2.58;;;;;;;20.51;88.46;99643.28;10296253;28;20422;-67
2023/06/18 22:34:12;;;;;;;4.38;2.67;;;;;;;20.57;88.64;99676.59;10297555;28;20043;-67
2023/06/18 22:39:13;;;;;;;5.90;2.75;;;;;;;20.48;89.35;99681.56;10296799;28;20516;-67
2023/06/18 22:44:14;;;;;;;5.45;2.95;;;;;;;20.41;89.80;99691.72;10296041;28;20066;-67
2023/06/18 22:49:15;;;;;;;5.40;2.78;;;;;;;20.13;90.65;99646.00;10295735;28;20050;-67
2023/06/18 22:54:15;;;;;;;5.47;2.90;;;;;;;20.13;90.95;99670.25;10272669;28;20131;-68
2023/06/18 22:59:19;;;;;;;7.38;3.10;;;;;;;20.15;92.59;99677.06;10280254;28;20046;-67
2023/06/18 23:04:20;;;;;;;4.28;3.08;;;;;;;20.02;92.56;99680.91;10294177;28;20101;-67
2023/06/18 23:09:21;;;;;;;7.10;3.15;;;;;;;19.57;92.99;99619.81;10294958;28;20518;-67
2023/06/18 23:14:22;;;;;;;7.13;3.40;;;;;;;19.59;94.06;99635.72;10295061;28;20051;-67
2023/06/18 23:19:23;;;;;;;6.50;3.85;;;;;;;19.79;94.11;99679.19;10295756;28;20039;-68
2023/06/18 23:24:25;;;;;;;6.03;3.47;;;;;;;19.75;94.00;99691.53;10295185;28;20432;-67
2023/06/18 23:29:26;;;;;;;6.55;4.10;;;;;;;19.21;94.78;99601.41;10295349;28;20141;-67
2023/06/18 23:34:26;;;;;;;7.07;4.22;;;;;;;19.38;95.73;99645.31;10294747;28;20542;-67
2023/06/18 23:39:27;;;;;;;4.50;3.63;;;;;;;19.36;95.92;99653.66;10294961;28;20066;-70
2023/06/18 23:44:28;;;;;;;9.45;3.67;;;;;;;19.41;96.08;99677.16;10293722;28;20061;-67